Time;durP1;ratioP1;P1;durP2;ratioP2;P2;SDS_P1;SDS_P2;PMS_P1;PMS_P2;Temp;Humidity;BMP_temperature;BMP_pressure;BME280_temperature;BME280_humidity;BME280_pressure;Samples;Min_cycle;Max_cycle;Signal;HPM_P1;HPM_P2
2022/08/28 00:00:43;;;;;;;0.47;0.30;;;13.00;99.90;;;;;;5032924;28;20040;-79
2022/08/28 00:03:11;;;;;;;1.00;0.40;;;13.00;99.90;;;;;;5033250;28;20045;-79
2022/08/28 00:05:38;;;;;;;0.32;0.32;;;13.00;99.90;;;;;;5033081;28;20044;-73
2022/08/28 00:08:05;;;;;;;1.00;0.40;;;13.00;99.90;;;;;;5032751;28;20132;-74
2022/08/28 00:10:31;;;;;;;0.63;0.45;;;12.90;99.90;;;;;;5033071;28;20037;-74
2022/08/28 00:12:58;;;;;;;0.60;0.35;;;12.80;99.90;;;;;;5032725;28;20043;-74
2022/08/28 00:15:28;;;;;;;0.65;0.40;;;12.90;99.90;;;;;;5032892;28;20045;-80
2022/08/28 00:17:54;;;;;;;0.73;0.45;;;12.80;99.90;;;;;;5032999;28;20044;-80
2022/08/28 00:20:21;;;;;;;1.13;0.40;;;12.70;99.90;;;;;;5032860;28;20044;-74
2022/08/28 00:22:48;;;;;;;0.63;0.43;;;12.80;99.90;;;;;;5032626;28;20464;-80
2022/08/28 00:25:15;;;;;;;0.50;0.35;;;12.70;99.90;;;;;;5016489;28;20045;-80
2022/08/28 00:27:53;;;;;;;0.77;0.40;;;12.60;99.90;;;;;;5032984;28;20064;-80
2022/08/28 00:30:42;;;;;;;0.60;0.40;;;12.60;99.90;;;;;;5003571;28;20045;-81
2022/08/28 00:33:21;;;;;;;0.40;0.30;;;12.60;99.90;;;;;;5016268;28;20179;-74
2022/08/28 00:35:48;;;;;;;0.30;0.20;;;12.60;99.90;;;;;;5016353;28;20404;-73
2022/08/28 00:38:17;;;;;;;0.93;0.32;;;12.60;99.90;;;;;;5032660;28;20106;-73
2022/08/28 00:40:45;;;;;;;0.50;0.30;;;12.50;99.90;;;;;;5032813;28;20485;-73
2022/08/28 00:43:38;;;;;;;0.60;0.30;;;12.50;99.90;;;;;;5016405;28;20048;-79
2022/08/28 00:46:09;;;;;;;1.05;0.52;;;12.40;99.90;;;;;;5032819;28;20049;-73
2022/08/28 00:48:35;;;;;;;0.30;0.30;;;12.40;99.90;;;;;;5019312;28;20048;-79
2022/08/28 00:53:47;;;;;;;0.40;0.30;;;12.40;99.90;;;;;;5036470;28;20111;-79
2022/08/28 00:56:15;;;;;;;0.52;0.30;;;12.40;99.90;;;;;;5019904;28;20052;-73
2022/08/28 00:58:43;;;;;;;0.75;0.30;;;12.30;99.90;;;;;;5036980;28;20091;-81
2022/08/28 01:01:10;;;;;;;0.38;0.30;;;12.30;99.90;;;;;;5037036;28;20361;-80
2022/08/28 01:03:36;;;;;;;0.25;0.20;;;12.30;99.90;;;;;;5036084;28;20048;-73
2022/08/28 01:06:03;;;;;;;0.60;0.40;;;12.30;99.90;;;;;;5035680;28;20056;-73
2022/08/28 01:08:30;;;;;;;0.52;0.35;;;12.20;99.90;;;;;;5035851;28;20484;-79
2022/08/28 01:10:58;;;;;;;0.40;0.32;;;12.30;99.90;;;;;;5036459;28;20053;-79
2022/08/28 01:13:25;;;;;;;0.22;0.15;;;12.30;99.90;;;;;;5036331;28;20037;-79
2022/08/28 01:15:52;;;;;;;0.43;0.35;;;12.20;99.90;;;;;;5019892;28;20073;-79
2022/08/28 01:18:18;;;;;;;0.77;0.30;;;12.20;99.90;;;;;;5036136;28;20048;-73
2022/08/28 01:20:54;;;;;;;;;;;12.20;99.90;;;;;;5036206;28;20036;-73
2022/08/28 01:23:43;;;;;;;0.35;0.30;;;12.20;99.90;;;;;;5036089;28;20015;-79
2022/08/28 01:26:09;;;;;;;1.00;0.40;;;12.20;99.90;;;;;;5036230;28;20067;-79
2022/08/28 01:28:34;;;;;;;0.32;0.30;;;12.20;99.90;;;;;;5036215;28;20045;-79
2022/08/28 01:31:00;;;;;;;0.50;0.30;;;12.20;99.90;;;;;;5019786;28;20071;-79
2022/08/28 01:33:26;;;;;;;0.40;0.32;;;12.20;99.90;;;;;;5035870;28;20088;-79
2022/08/28 01:35:51;;;;;;;0.60;0.38;;;12.10;99.90;;;;;;5035346;28;20041;-73
2022/08/28 01:38:17;;;;;;;0.70;0.35;;;12.20;99.90;;;;;;5018931;28;20041;-78
2022/08/28 01:40:46;;;;;;;0.82;0.40;;;12.20;99.90;;;;;;5019006;28;20072;-79
2022/08/28 01:43:31;;;;;;;0.40;0.30;;;12.10;99.90;;;;;;5035593;28;20464;-79
2022/08/28 01:46:00;;;;;;;0.25;0.25;;;12.10;99.90;;;;;;5035359;28;20562;-74
2022/08/28 01:48:28;;;;;;;0.65;0.40;;;12.20;99.90;;;;;;5035089;28;20074;-74
2022/08/28 01:50:54;;;;;;;0.43;0.38;;;12.10;99.90;;;;;;5035394;28;20144;-79
2022/08/28 01:53:23;;;;;;;0.77;0.32;;;12.20;99.90;;;;;;5035925;28;20056;-79
2022/08/28 01:55:51;;;;;;;0.75;0.38;;;12.20;99.90;;;;;;5035340;28;20052;-79
2022/08/28 01:58:17;;;;;;;0.57;0.20;;;12.10;99.90;;;;;;5018702;28;20126;-74
2022/08/28 02:00:43;;;;;;;0.28;0.28;;;12.00;99.90;;;;;;5017990;28;20041;-79
2022/08/28 02:03:09;;;;;;;0.40;0.30;;;12.10;99.90;;;;;;5034861;28;20044;-73
2022/08/28 02:05:35;;;;;;;0.75;0.40;;;12.00;99.90;;;;;;5035751;28;20052;-80
2022/08/28 02:08:03;;;;;;;0.32;0.30;;;12.00;99.90;;;;;;5035087;28;20045;-79
2022/08/28 02:10:32;;;;;;;0.35;0.30;;;11.90;99.90;;;;;;5018809;28;20112;-79
2022/08/28 02:12:59;;;;;;;0.20;0.20;;;11.80;99.90;;;;;;5034977;28;20055;-74
2022/08/28 02:15:26;;;;;;;0.25;0.20;;;11.80;99.90;;;;;;5017844;28;20048;-73
2022/08/28 02:17:52;;;;;;;0.47;0.32;;;11.90;99.90;;;;;;5018241;28;20041;-73
2022/08/28 02:20:18;;;;;;;0.60;0.30;;;11.90;99.90;;;;;;5018053;28;20049;-79
2022/08/28 02:22:44;;;;;;;0.40;0.22;;;11.80;99.90;;;;;;5034961;28;20041;-79
2022/08/28 02:25:11;;;;;;;0.28;0.20;;;11.90;99.90;;;;;;5035012;28;20071;-79
2022/08/28 02:27:37;;;;;;;0.73;0.30;;;11.90;99.90;;;;;;5034761;28;20084;-74
2022/08/28 02:30:05;;;;;;;0.85;0.50;;;11.80;99.90;;;;;;5017961;28;20076;-73
2022/08/28 02:32:31;;;;;;;0.40;0.30;;;11.80;99.90;;;;;;5034278;28;20439;-74
2022/08/28 02:34:57;;;;;;;0.25;0.25;;;11.80;99.90;;;;;;5034142;28;20061;-73
2022/08/28 02:37:23;;;;;;;0.38;0.30;;;11.80;99.90;;;;;;5017597;28;20047;-73
2022/08/28 02:39:53;;;;;;;0.40;0.30;;;11.70;99.90;;;;;;5034025;28;20041;-74
2022/08/28 02:42:18;;;;;;;0.65;0.40;;;11.60;99.90;;;;;;5033914;28;20041;-74
2022/08/28 02:44:44;;;;;;;1.27;0.50;;;11.60;99.90;;;;;;5034222;28;20121;-73
2022/08/28 02:47:10;;;;;;;0.20;0.20;;;11.70;99.90;;;;;;5017465;28;20587;-73
2022/08/28 02:49:35;;;;;;;0.40;0.28;;;11.70;99.90;;;;;;5034246;28;20041;-74
2022/08/28 02:52:01;;;;;;;0.43;0.32;;;11.60;99.90;;;;;;5034157;28;20507;-74
2022/08/28 02:54:27;;;;;;;0.35;0.30;;;11.60;99.90;;;;;;5033569;28;20523;-74
2022/08/28 02:56:53;;;;;;;0.80;0.40;;;11.70;99.90;;;;;;5033803;28;20105;-74
2022/08/28 02:59:20;;;;;;;0.45;0.30;;;11.60;99.90;;;;;;5034223;28;20051;-79
2022/08/28 03:01:46;;;;;;;0.40;0.22;;;11.50;99.90;;;;;;5034242;28;20064;-79
2022/08/28 03:04:11;;;;;;;0.40;0.30;;;11.50;99.90;;;;;;5034376;28;20041;-80
2022/08/28 03:06:37;;;;;;;0.85;0.32;;;11.60;99.90;;;;;;5034213;28;20476;-79
2022/08/28 03:09:03;;;;;;;0.65;0.30;;;11.50;99.90;;;;;;5033858;28;20048;-74
2022/08/28 03:11:29;;;;;;;0.73;0.50;;;11.50;99.90;;;;;;5032929;28;20041;-74
2022/08/28 03:13:55;;;;;;;0.93;0.40;;;11.50;99.90;;;;;;5033497;28;20409;-74
2022/08/28 03:16:21;;;;;;;0.30;0.30;;;11.50;99.90;;;;;;5016978;28;20073;-79
2022/08/28 03:18:47;;;;;;;0.70;0.50;;;11.40;99.90;;;;;;5033964;28;20041;-79
2022/08/28 03:21:13;;;;;;;0.20;0.20;;;11.50;99.90;;;;;;5017765;28;20044;-79
2022/08/28 03:23:39;;;;;;;0.60;0.30;;;11.40;99.90;;;;;;5034029;28;20159;-79
2022/08/28 03:26:07;;;;;;;0.40;0.20;;;11.40;99.90;;;;;;5033909;28;20045;-79
2022/08/28 03:28:45;;;;;;;0.57;0.30;;;11.40;99.90;;;;;;5051817;28;20074;-79
2022/08/28 03:31:16;;;;;;;0.30;0.25;;;11.40;99.90;;;;;;5034107;28;20071;-80
2022/08/28 03:33:43;;;;;;;0.50;0.40;;;11.30;99.90;;;;;;5029753;28;20557;-74
2022/08/28 03:36:10;;;;;;;0.38;0.30;;;11.30;99.90;;;;;;5013319;28;20045;-74
2022/08/28 03:38:36;;;;;;;0.50;0.38;;;11.40;99.90;;;;;;5029633;28;20103;-74
2022/08/28 03:41:02;;;;;;;0.57;0.38;;;11.40;99.90;;;;;;5029753;28;20041;-74
2022/08/28 03:43:28;;;;;;;0.45;0.20;;;11.40;99.90;;;;;;5013882;28;20056;-79
2022/08/28 03:46:05;;;;;;;0.20;0.20;;;11.40;99.90;;;;;;5030540;28;20056;-80
2022/08/28 03:48:35;;;;;;;1.70;0.30;;;11.40;99.90;;;;;;5030577;28;20049;-80
2022/08/28 03:51:05;;;;;;;0.30;0.20;;;11.40;99.90;;;;;;5030499;28;20072;-80
2022/08/28 03:53:31;;;;;;;0.52;0.30;;;11.50;99.90;;;;;;5029675;28;20045;-72
2022/08/28 03:55:57;;;;;;;0.43;0.17;;;11.50;99.90;;;;;;5029472;28;20176;-73
2022/08/28 03:58:24;;;;;;;0.30;0.20;;;11.60;99.90;;;;;;5029770;28;20136;-73
2022/08/28 04:00:50;;;;;;;0.30;0.20;;;11.50;99.90;;;;;;5029516;28;20052;-73
2022/08/28 04:03:16;;;;;;;0.32;0.30;;;11.70;99.90;;;;;;5029526;28;20041;-73
2022/08/28 04:05:42;;;;;;;;;;;11.60;99.90;;;;;;5029949;28;20477;-73
2022/08/28 04:08:08;;;;;;;0.20;0.10;;;11.70;99.90;;;;;;5029468;28;19921;-73
2022/08/28 04:10:35;;;;;;;0.20;0.20;;;11.60;99.90;;;;;;5029427;28;20049;-73
2022/08/28 04:13:02;;;;;;;0.95;0.30;;;11.60;99.90;;;;;;5013833;28;20167;-78
2022/08/28 04:15:28;;;;;;;0.40;0.20;;;11.60;99.90;;;;;;5030233;28;20049;-79
2022/08/28 04:17:53;;;;;;;0.50;0.20;;;11.70;99.90;;;;;;5030123;28;20048;-80
2022/08/28 04:20:19;;;;;;;0.30;0.28;;;11.50;99.90;;;;;;5029953;28;20045;-79
2022/08/28 04:22:49;;;;;;;0.32;0.10;;;11.60;99.90;;;;;;5031888;28;20041;-80
2022/08/28 04:25:15;;;;;;;0.45;0.30;;;11.50;99.90;;;;;;5033931;28;20124;-78
2022/08/28 04:27:41;;;;;;;0.63;0.30;;;11.60;99.90;;;;;;5033946;28;20124;-80
2022/08/28 04:30:08;;;;;;;0.20;0.20;;;11.50;99.90;;;;;;5033773;28;20052;-80
2022/08/28 04:32:35;;;;;;;0.20;0.20;;;11.50;99.90;;;;;;5035991;28;20072;-80
2022/08/28 04:35:01;;;;;;;0.57;0.20;;;11.60;99.90;;;;;;5036940;28;20456;-73
2022/08/28 04:37:27;;;;;;;0.20;0.20;;;11.60;99.90;;;;;;5036702;28;20051;-73
2022/08/28 04:39:52;;;;;;;0.20;0.10;;;11.50;99.90;;;;;;5036440;28;20041;-79
2022/08/28 04:42:18;;;;;;;0.22;0.20;;;11.60;99.90;;;;;;5020628;28;20052;-79
2022/08/28 04:44:44;;;;;;;0.30;0.20;;;11.70;99.90;;;;;;5020457;28;20056;-78
2022/08/28 04:47:10;;;;;;;0.28;0.20;;;11.70;99.90;;;;;;5036338;28;20052;-73
2022/08/28 04:49:37;;;;;;;0.35;0.20;;;11.70;99.90;;;;;;5036071;28;20084;-79
2022/08/28 04:52:03;;;;;;;1.10;0.30;;;11.90;99.90;;;;;;5036781;28;20049;-73
2022/08/28 04:54:30;;;;;;;0.85;0.20;;;12.10;99.90;;;;;;5036606;28;20072;-79
2022/08/28 04:56:56;;;;;;;0.93;0.50;;;12.50;99.90;;;;;;5054485;28;20167;-79
2022/08/28 04:59:22;;;;;;;0.52;0.30;;;12.50;99.90;;;;;;5036842;28;20516;-72
2022/08/28 05:01:48;;;;;;;;;;;12.70;99.90;;;;;;5036940;28;20045;-79
2022/08/28 05:04:14;;;;;;;0.63;0.43;;;12.90;99.90;;;;;;5036627;28;20011;-78
2022/08/28 05:06:44;;;;;;;0.50;0.25;;;12.90;99.90;;;;;;5036215;28;20502;-79
2022/08/28 05:09:11;;;;;;;0.95;0.32;;;12.90;99.90;;;;;;5036360;28;20057;-80
2022/08/28 05:11:38;;;;;;;0.52;0.40;;;13.10;99.90;;;;;;5035892;28;20393;-79
2022/08/28 05:14:05;;;;;;;0.55;0.20;;;13.10;99.90;;;;;;5036461;28;20124;-73
2022/08/28 05:16:33;;;;;;;0.32;0.20;;;13.10;99.90;;;;;;5035564;28;20183;-73
2022/08/28 05:19:00;;;;;;;0.50;0.20;;;13.00;99.90;;;;;;5035669;28;20041;-79
2022/08/28 05:21:26;;;;;;;0.20;0.20;;;12.90;99.90;;;;;;5036355;28;20477;-79
2022/08/28 05:23:55;;;;;;;0.30;0.30;;;13.10;99.90;;;;;;5035804;28;20397;-73
2022/08/28 05:26:21;;;;;;;0.50;0.30;;;13.10;99.90;;;;;;5035556;28;20512;-79
2022/08/28 05:28:47;;;;;;;0.60;0.30;;;13.10;99.90;;;;;;5019545;28;20048;-80
2022/08/28 05:31:17;;;;;;;0.35;0.20;;;13.20;99.90;;;;;;5035876;28;20044;-80
2022/08/28 05:33:46;;;;;;;0.20;0.20;;;13.10;99.90;;;;;;5018050;28;20331;-79
2022/08/28 05:36:12;;;;;;;0.10;0.10;;;13.30;99.90;;;;;;5035477;28;20127;-80
2022/08/28 05:38:38;;;;;;;0.17;0.10;;;13.40;99.90;;;;;;5019229;28;20075;-80
2022/08/28 05:41:04;;;;;;;;;;;13.60;99.90;;;;;;5035705;28;20037;-73
2022/08/28 05:43:31;;;;;;;0.47;0.30;;;13.70;99.90;;;;;;5034870;28;19923;-72
2022/08/28 05:45:58;;;;;;;0.70;0.35;;;14.00;99.90;;;;;;5035301;28;20076;-79
2022/08/28 05:48:30;;;;;;;1.42;0.45;;;14.20;99.90;;;;;;5035482;28;20552;-79
2022/08/28 05:51:14;;;;;;;1.10;0.60;;;14.50;99.90;;;;;;5035328;28;20392;-74
2022/08/28 05:53:41;;;;;;;2.25;0.70;;;14.90;99.90;;;;;;5018645;28;20041;-73
2022/08/28 05:56:13;;;;;;;1.85;0.70;;;15.10;99.90;;;;;;5034846;28;20041;-74
2022/08/28 05:58:39;;;;;;;0.80;0.50;;;15.20;99.90;;;;;;5035137;28;20543;-74
2022/08/28 06:01:15;;;;;;;1.20;0.43;;;15.40;99.90;;;;;;5018731;28;20045;-78
2022/08/28 06:03:44;;;;;;;1.50;0.60;;;15.50;99.90;;;;;;5035660;28;20510;-80
2022/08/28 06:06:11;;;;;;;1.85;0.50;;;15.60;99.90;;;;;;5034950;28;20052;-79
2022/08/28 06:08:38;;;;;;;2.78;1.13;;;15.70;99.90;;;;;;5035347;28;20037;-78
2022/08/28 06:11:05;;;;;;;2.00;0.60;;;15.80;99.90;;;;;;5035651;28;20448;-79
2022/08/28 06:13:31;;;;;;;1.65;0.65;;;15.90;99.90;;;;;;5034880;28;20045;-73
2022/08/28 06:15:57;;;;;;;1.48;0.57;;;15.90;99.90;;;;;;5034781;28;20500;-80
2022/08/28 06:18:24;;;;;;;1.02;0.43;;;15.80;99.90;;;;;;5034806;28;20098;-73
2022/08/28 06:20:50;;;;;;;1.50;0.60;;;15.80;99.90;;;;;;5034930;28;20060;-79
2022/08/28 06:23:18;;;;;;;1.90;0.63;;;15.80;99.90;;;;;;5034726;28;20043;-74
2022/08/28 06:25:48;;;;;;;1.58;0.60;;;15.90;99.90;;;;;;5018491;28;20497;-79
2022/08/28 06:28:25;;;;;;;2.63;0.90;;;16.10;99.90;;;;;;5018101;28;20045;-74
2022/08/28 06:30:53;;;;;;;2.30;0.90;;;16.50;99.90;;;;;;5018030;28;20131;-73
2022/08/28 06:33:20;;;;;;;2.63;0.80;;;17.10;99.90;;;;;;5034090;28;20476;-73
2022/08/28 06:35:54;;;;;;;1.58;0.70;;;17.50;99.90;;;;;;5018762;28;20270;-80
2022/08/28 06:38:22;;;;;;;2.53;0.73;;;17.90;99.90;;;;;;5035608;28;20041;-78
2022/08/28 06:40:51;;;;;;;3.25;0.93;;;18.20;99.90;;;;;;5018237;28;20396;-73
2022/08/28 06:43:18;;;;;;;1.92;0.70;;;18.30;99.90;;;;;;5034052;28;20079;-73
2022/08/28 06:45:46;;;;;;;2.20;0.85;;;18.50;99.90;;;;;;5034637;28;20077;-79
2022/08/28 06:48:18;;;;;;;1.35;0.80;;;18.30;99.90;;;;;;5035284;28;20040;-80
2022/08/28 06:50:48;;;;;;;3.40;1.00;;;18.20;99.90;;;;;;5035222;28;20461;-81
2022/08/28 06:53:16;;;;;;;2.70;1.00;;;17.90;99.90;;;;;;5018441;28;20045;-80
2022/08/28 06:55:42;;;;;;;2.13;1.05;;;17.90;99.90;;;;;;5017805;28;20120;-74
2022/08/28 06:58:09;;;;;;;2.45;0.95;;;18.00;99.90;;;;;;5019075;28;20560;-79
2022/08/28 07:00:36;;;;;;;3.00;1.13;;;18.10;99.90;;;;;;5033983;28;20083;-73
2022/08/28 07:03:04;;;;;;;3.67;1.13;;;17.80;99.90;;;;;;5033669;28;20388;-73
2022/08/28 07:05:31;;;;;;;3.63;1.10;;;17.60;99.90;;;;;;5018075;28;20511;-79
2022/08/28 07:07:57;;;;;;;2.13;1.10;;;17.50;99.90;;;;;;5034926;28;20103;-80
2022/08/28 07:10:23;;;;;;;2.40;0.90;;;17.40;99.90;;;;;;5035170;28;20049;-79
2022/08/28 07:12:49;;;;;;;3.65;1.20;;;17.10;99.90;;;;;;5034246;28;20060;-73
2022/08/28 07:15:17;;;;;;;1.38;0.80;;;16.80;99.90;;;;;;5033416;28;20044;-73
2022/08/28 07:17:43;;;;;;;4.30;1.10;;;16.70;99.90;;;;;;5034650;28;20388;-80
2022/08/28 07:20:10;;;;;;;;;;;16.80;99.90;;;;;;5034032;28;20041;-74
2022/08/28 07:22:39;;;;;;;3.50;1.00;;;17.00;99.90;;;;;;5068111;28;19923;-79
2022/08/28 07:25:07;;;;;;;2.75;0.90;;;17.00;99.90;;;;;;5034728;28;20053;-80
2022/08/28 07:27:33;;;;;;;2.95;1.02;;;17.10;99.90;;;;;;5018778;28;20044;-78
2022/08/28 07:30:00;;;;;;;2.58;1.10;;;17.00;99.90;;;;;;5017905;28;20484;-74
2022/08/28 07:32:27;;;;;;;2.55;1.00;;;17.00;99.90;;;;;;5017126;28;20102;-80
2022/08/28 07:34:55;;;;;;;2.53;0.88;;;17.20;99.90;;;;;;5034419;28;20142;-81
2022/08/28 07:37:20;;;;;;;1.85;0.80;;;17.70;99.90;;;;;;5034602;28;20053;-81
2022/08/28 07:39:46;;;;;;;2.80;0.95;;;18.30;99.90;;;;;;5018661;28;20052;-81
2022/08/28 07:44:47;;;;;;;3.95;1.13;;;18.80;99.90;;;;;;5033968;28;20400;-73
2022/08/28 07:44:58;;;;;;;3.03;1.38;;;19.20;99.70;;;;;;5033261;28;20512;-80
2022/08/28 07:47:28;;;;;;;;;;;19.40;99.40;;;;;;5017997;28;20052;-80
2022/08/28 07:49:54;;;;;;;2.08;0.90;;;19.50;99.00;;;;;;5033754;28;20394;-81
2022/08/28 07:52:19;;;;;;;;;;;19.60;99.60;;;;;;5034266;28;20045;-81
2022/08/28 07:54:46;;;;;;;3.17;1.20;;;19.50;98.90;;;;;;5017388;28;19921;-80
2022/08/28 07:57:12;;;;;;;2.78;1.13;;;19.20;99.00;;;;;;5032719;28;20561;-74
2022/08/28 07:59:38;;;;;;;;;;;19.10;99.50;;;;;;5017615;28;20048;-74
2022/08/28 08:02:04;;;;;;;4.85;1.50;;;18.90;99.80;;;;;;5032745;28;19928;-74
2022/08/28 08:04:30;;;;;;;3.72;1.10;;;19.00;99.90;;;;;;5032775;28;20064;-74
2022/08/28 08:06:56;;;;;;;;;;;19.00;99.90;;;;;;5033357;28;20037;-74
2022/08/28 08:09:22;;;;;;;2.28;1.02;;;19.10;99.90;;;;;;5033264;28;19917;-81
2022/08/28 08:11:48;;;;;;;;;;;19.50;99.90;;;;;;5033917;28;20090;-80
2022/08/28 08:14:15;;;;;;;4.03;1.30;;;19.50;99.60;;;;;;5033469;28;19963;-80
2022/08/28 08:16:42;;;;;;;3.22;1.38;;;19.60;99.30;;;;;;5033159;28;20439;-74
2022/08/28 08:19:12;;;;;;;3.17;1.13;;;19.60;99.40;;;;;;5016127;28;20069;-74
2022/08/28 08:21:39;;;;;;;3.08;1.02;;;20.00;99.90;;;;;;5033061;28;20049;-74
2022/08/28 08:24:05;;;;;;;4.00;1.30;;;20.20;99.10;;;;;;5032551;28;20053;-75
2022/08/28 08:26:31;;;;;;;3.13;1.23;;;20.10;98.60;;;;;;5016325;28;20396;-74
2022/08/28 08:28:58;;;;;;;2.35;1.10;;;19.60;97.70;;;;;;5032649;28;20106;-75
2022/08/28 08:31:31;;;;;;;4.38;1.20;;;19.30;98.20;;;;;;5032634;28;20056;-74
2022/08/28 08:34:02;;;;;;;2.45;1.10;;;18.80;98.60;;;;;;5032987;28;20057;-74
2022/08/28 08:36:31;;;;;;;2.47;1.00;;;18.70;99.30;;;;;;5033196;28;20179;-74
2022/08/28 08:38:58;;;;;;;2.65;1.20;;;18.70;99.70;;;;;;5032568;28;20041;-79
2022/08/28 08:41:30;;;;;;;3.58;1.13;;;18.40;99.90;;;;;;5033518;28;20087;-80
2022/08/28 08:44:00;;;;;;;3.35;1.20;;;18.30;99.90;;;;;;5034261;28;20049;-80
2022/08/28 08:46:33;;;;;;;3.85;1.15;;;18.10;99.90;;;;;;5051636;28;20098;-73
2022/08/28 08:49:03;;;;;;;2.80;1.17;;;18.40;99.90;;;;;;5032718;28;20041;-73
2022/08/28 08:51:40;;;;;;;3.40;1.58;;;18.80;99.90;;;;;;5032453;28;20497;-73
2022/08/28 08:54:12;;;;;;;4.32;1.35;;;19.10;99.80;;;;;;5032324;28;20132;-74
2022/08/28 08:56:40;;;;;;;3.20;1.13;;;19.40;98.90;;;;;;5032766;28;20124;-80
2022/08/28 08:59:13;;;;;;;2.05;1.05;;;19.60;97.40;;;;;;5033543;28;20268;-81
2022/08/28 09:01:58;;;;;;;2.90;1.40;;;19.40;97.10;;;;;;5032910;28;20082;-81
2022/08/28 09:04:38;;;;;;;4.25;1.38;;;19.20;97.30;;;;;;5033101;28;20060;-81
2022/08/28 09:07:14;;;;;;;3.78;1.30;;;19.50;97.80;;;;;;5016502;28;20056;-80
2022/08/28 09:09:54;;;;;;;3.38;1.27;;;19.90;98.20;;;;;;5052529;28;20068;-74
2022/08/28 09:12:27;;;;;;;2.38;1.20;;;20.20;97.00;;;;;;5019664;28;20052;-80
2022/08/28 09:15:04;;;;;;;3.30;1.30;;;20.30;96.70;;;;;;5019739;28;20048;-80
2022/08/28 09:17:46;;;;;;;3.08;1.27;;;20.00;96.00;;;;;;5020073;28;20120;-81
2022/08/28 09:20:16;;;;;;;3.70;1.15;;;19.50;96.50;;;;;;5035783;28;20488;-74
2022/08/28 09:22:45;;;;;;;2.63;1.05;;;19.50;96.70;;;;;;5018955;28;20079;-74
2022/08/28 09:25:31;;;;;;;3.50;1.10;;;19.60;97.30;;;;;;5035745;28;20116;-81
2022/08/28 09:28:04;;;;;;;;;;;19.80;97.60;;;;;;5035811;28;20094;-74
2022/08/28 09:30:30;;;;;;;3.33;1.60;;;20.10;97.10;;;;;;5035559;28;20323;-75
2022/08/28 09:32:59;;;;;;;2.38;1.02;;;20.40;95.60;;;;;;5034972;28;20056;-75
2022/08/28 09:35:28;;;;;;;2.40;1.20;;;20.60;96.20;;;;;;5035544;28;20408;-81
2022/08/28 09:37:54;;;;;;;4.60;1.40;;;20.50;95.70;;;;;;5035660;28;20049;-75
2022/08/28 09:43:26;;;;;;;2.45;1.13;;;20.50;96.10;;;;;;5035301;28;20063;-74
2022/08/28 09:46:05;;;;;;;3.05;1.20;;;20.70;96.50;;;;;;5035203;28;20044;-81
2022/08/28 09:48:37;;;;;;;2.05;1.00;;;20.50;95.60;;;;;;5035971;28;20049;-81
2022/08/28 09:51:11;;;;;;;2.03;1.08;;;20.80;96.30;;;;;;5036196;28;20064;-81
2022/08/28 09:53:55;;;;;;;3.00;1.40;;;20.70;95.90;;;;;;5035828;28;20045;-74
2022/08/28 09:56:32;;;;;;;2.40;0.98;;;20.50;96.30;;;;;;5035242;28;20045;-74
2022/08/28 09:59:17;;;;;;;2.03;1.20;;;20.20;96.40;;;;;;5035086;28;20071;-74
2022/08/28 10:01:48;;;;;;;3.17;1.27;;;19.90;96.90;;;;;;5036361;28;20033;-81
2022/08/28 10:04:26;;;;;;;3.08;1.13;;;20.00;97.00;;;;;;5036083;28;20124;-80
2022/08/28 10:06:58;;;;;;;1.50;0.95;;;20.00;97.20;;;;;;5035058;28;20590;-74
2022/08/28 10:09:43;;;;;;;3.65;1.60;;;20.30;96.80;;;;;;5035191;28;20037;-80
2022/08/28 10:12:15;;;;;;;1.85;1.00;;;20.30;97.00;;;;;;5019045;28;20134;-81
2022/08/28 10:14:44;;;;;;;3.55;1.33;;;20.10;96.60;;;;;;5018883;28;20045;-80
2022/08/28 10:17:31;;;;;;;2.03;0.93;;;19.80;96.80;;;;;;5018936;28;20492;-78
2022/08/28 10:20:18;;;;;;;3.28;1.48;;;19.60;96.60;;;;;;5034117;28;20045;-74
2022/08/28 10:22:47;;;;;;;;;;;20.00;96.60;;;;;;5035254;28;20053;-75
2022/08/28 10:25:31;;;;;;;3.55;1.35;;;20.10;96.50;;;;;;5034413;28;19917;-74
2022/08/28 10:28:13;;;;;;;2.10;0.98;;;19.80;96.50;;;;;;5034344;28;20056;-74
2022/08/28 10:30:49;;;;;;;2.90;1.20;;;19.80;96.70;;;;;;5034786;28;20254;-81
2022/08/28 10:34:02;;;;;;;2.95;1.10;;;20.00;96.90;;;;;;5035365;28;20080;-80
2022/08/28 10:36:29;;;;;;;2.83;1.27;;;19.90;96.60;;;;;;4973345;28;20049;-74
2022/08/28 10:39:36;;;;;;;3.33;1.30;;;20.10;96.00;;;;;;5017458;28;20040;-74
2022/08/28 10:42:04;;;;;;;1.80;0.90;;;20.30;96.20;;;;;;5034215;28;20037;-74
2022/08/28 10:44:56;;;;;;;3.58;1.10;;;20.10;95.90;;;;;;5017356;28;20051;-74
2022/08/28 10:47:24;;;;;;;1.30;0.77;;;20.30;95.90;;;;;;5031465;28;20051;-81
2022/08/28 10:49:54;;;;;;;4.35;1.30;;;20.50;96.50;;;;;;5034319;28;20045;-82
2022/08/28 10:52:32;;;;;;;2.53;1.10;;;20.20;95.80;;;;;;5034702;28;20057;-81
2022/08/28 10:54:57;;;;;;;3.67;1.30;;;20.10;96.30;;;;;;5033908;28;20045;-75
2022/08/28 10:57:23;;;;;;;;;;;19.90;96.20;;;;;;5017718;28;20127;-74
2022/08/28 10:59:52;;;;;;;2.80;1.00;;;19.70;96.20;;;;;;5033998;28;19920;-81
2022/08/28 11:02:21;;;;;;;2.97;1.20;;;19.90;96.40;;;;;;5033778;28;20048;-74
2022/08/28 11:04:48;;;;;;;2.75;1.20;;;19.90;95.80;;;;;;5017508;28;20388;-81
2022/08/28 11:07:29;;;;;;;3.50;1.30;;;19.70;96.50;;;;;;5034007;28;20037;-81
2022/08/28 11:10:20;;;;;;;3.00;1.40;;;19.90;96.30;;;;;;5033936;28;20045;-82
2022/08/28 11:12:48;;;;;;;2.35;1.17;;;19.90;95.80;;;;;;5034015;28;20051;-82
2022/08/28 11:15:49;;;;;;;3.38;1.27;;;20.20;95.70;;;;;;5033529;28;20466;-75
2022/08/28 11:18:15;;;;;;;3.28;1.30;;;20.60;95.50;;;;;;5033840;28;20136;-81
2022/08/28 11:21:00;;;;;;;;;;;20.80;95.60;;;;;;5034522;28;20552;-73
2022/08/28 11:23:49;;;;;;;2.78;1.00;;;21.10;95.80;;;;;;5022355;28;19929;-74
2022/08/28 11:26:37;;;;;;;2.58;1.10;;;21.40;94.70;;;;;;5033445;28;20103;-80
2022/08/28 11:29:03;;;;;;;4.68;1.38;;;21.60;94.00;;;;;;5033361;28;20538;-81
2022/08/28 11:31:32;;;;;;;2.13;1.27;;;21.80;94.00;;;;;;5033014;28;20045;-75
2022/08/28 11:33:58;;;;;;;3.53;1.42;;;21.80;93.90;;;;;;5032805;28;20419;-74
2022/08/28 11:36:26;;;;;;;4.82;1.35;;;21.70;93.70;;;;;;5033357;28;20496;-82
2022/08/28 11:38:56;;;;;;;2.05;1.20;;;21.30;94.40;;;;;;5033574;28;20489;-81
2022/08/28 11:41:37;;;;;;;2.03;1.20;;;21.50;94.70;;;;;;5033693;28;20496;-81
2022/08/28 11:44:12;;;;;;;3.05;1.10;;;21.70;94.10;;;;;;5033130;28;20499;-75
2022/08/28 11:46:48;;;;;;;3.20;1.33;;;21.80;94.20;;;;;;5032760;28;20052;-74
2022/08/28 11:49:25;;;;;;;2.55;1.20;;;21.70;94.10;;;;;;5016995;28;20047;-81
2022/08/28 11:52:10;;;;;;;2.10;1.13;;;21.70;93.90;;;;;;5016487;28;20444;-74
2022/08/28 11:54:57;;;;;;;2.65;1.20;;;22.10;94.00;;;;;;5032731;28;20100;-74
2022/08/28 11:57:41;;;;;;;3.58;1.10;;;21.70;94.10;;;;;;5016670;28;20033;-81
2022/08/28 12:00:09;;;;;;;1.40;0.90;;;21.10;94.50;;;;;;5016332;28;20500;-75
2022/08/28 12:02:38;;;;;;;2.08;1.10;;;21.70;95.00;;;;;;5016897;28;20073;-75
2022/08/28 12:05:11;;;;;;;1.77;1.02;;;21.80;94.70;;;;;;5016333;28;20052;-75
2022/08/28 12:07:45;;;;;;;1.23;0.80;;;21.80;94.30;;;;;;5032648;28;20101;-75
2022/08/28 12:10:24;;;;;;;2.70;1.10;;;21.70;94.30;;;;;;5016550;28;20036;-74
2022/08/28 12:12:52;;;;;;;4.93;1.50;;;21.20;94.30;;;;;;5032748;28;20057;-74
2022/08/28 12:15:27;;;;;;;2.22;1.20;;;20.80;93.70;;;;;;5032534;28;20060;-75
2022/08/28 12:17:58;;;;;;;4.13;1.33;;;20.40;93.90;;;;;;5032639;28;20077;-73
2022/08/28 12:20:31;;;;;;;3.17;1.35;;;20.50;94.50;;;;;;5032777;28;20143;-73
2022/08/28 12:22:59;;;;;;;2.28;1.10;;;20.60;94.30;;;;;;5032454;28;20590;-74
2022/08/28 12:25:40;;;;;;;1.65;1.10;;;20.60;94.30;;;;;;5032584;28;20045;-74
2022/08/28 12:28:28;;;;;;;2.38;1.25;;;20.90;94.30;;;;;;5032501;28;20097;-74
2022/08/28 12:31:14;;;;;;;3.47;1.20;;;21.20;94.10;;;;;;5020227;28;20069;-73
2022/08/28 12:34:04;;;;;;;2.03;0.95;;;21.00;94.00;;;;;;5033063;28;20061;-81
2022/08/28 12:36:30;;;;;;;3.50;1.02;;;20.60;94.10;;;;;;5032740;28;20056;-73
2022/08/28 12:38:59;;;;;;;2.40;0.98;;;20.60;94.60;;;;;;5016099;28;20487;-73
2022/08/28 12:41:26;;;;;;;2.53;0.95;;;20.80;94.40;;;;;;5016236;28;20044;-81
2022/08/28 12:43:58;;;;;;;1.63;0.85;;;20.70;94.40;;;;;;5034216;28;20454;-73
2022/08/28 12:46:31;;;;;;;2.15;1.13;;;20.70;95.00;;;;;;5036567;28;20408;-80
2022/08/28 12:49:03;;;;;;;1.70;1.08;;;20.60;95.30;;;;;;5036533;28;20049;-81
2022/08/28 12:51:35;;;;;;;1.75;1.05;;;20.70;95.30;;;;;;5036325;28;20045;-74
2022/08/28 12:54:05;;;;;;;2.45;0.90;;;20.70;95.40;;;;;;5036366;28;20433;-81
2022/08/28 12:56:36;;;;;;;2.25;1.05;;;20.70;95.60;;;;;;5054602;28;20480;-82
2022/08/28 12:59:35;;;;;;;2.05;0.95;;;20.50;95.50;;;;;;5020193;28;20052;-74
2022/08/28 13:02:29;;;;;;;4.28;1.15;;;20.20;95.90;;;;;;5019593;28;20041;-74
2022/08/28 13:04:59;;;;;;;2.83;1.20;;;20.10;96.10;;;;;;5035916;28;20044;-75
2022/08/28 13:07:32;;;;;;;2.78;1.10;;;20.10;96.70;;;;;;5019533;28;20485;-82
2022/08/28 13:10:02;;;;;;;1.63;0.80;;;20.20;96.90;;;;;;5036318;28;20055;-82
2022/08/28 13:12:34;;;;;;;2.33;0.80;;;20.10;96.70;;;;;;5036241;28;20123;-82